createdAt,value
2024-02-28T00:00:20.726Z,23.70
2024-02-28T00:02:48.864Z,24.02
2024-02-28T00:05:17.209Z,24.17
2024-02-28T00:07:45.808Z,24.08
2024-02-28T00:10:15.567Z,24.17
2024-02-28T00:12:48.480Z,25.20
2024-02-28T00:15:18.280Z,25.27
2024-02-28T00:17:46.804Z,25.27
2024-02-28T00:20:15.396Z,25.90
2024-02-28T00:22:44.091Z,24.73
2024-02-28T00:25:12.588Z,26.45
2024-02-28T00:27:42.217Z,26.30
2024-02-28T00:30:11.299Z,26.08
2024-02-28T00:32:39.477Z,26.42
2024-02-28T00:35:08.406Z,26.58
2024-02-28T00:37:36.590Z,26.67
2024-02-28T00:40:05.331Z,26.42
2024-02-28T00:42:33.490Z,27.20
2024-02-28T00:45:03.957Z,28.08
2024-02-28T00:47:32.482Z,28.30
2024-02-28T00:50:00.747Z,28.50
2024-02-28T00:52:28.935Z,27.73
2024-02-28T00:54:57.046Z,28.08
2024-02-28T00:57:25.508Z,28.08
2024-02-28T00:59:55.836Z,27.27
2024-02-28T01:02:25.658Z,29.52
2024-02-28T01:04:56.189Z,28.73
2024-02-28T01:07:24.326Z,27.98
2024-02-28T01:09:52.432Z,28.65
2024-02-28T01:12:20.621Z,27.52
2024-02-28T01:14:48.781Z,28.75
2024-02-28T01:17:16.830Z,26.38
2024-02-28T01:19:46.350Z,28.60
2024-02-28T01:22:14.486Z,28.08
2024-02-28T01:24:42.756Z,29.20
2024-02-28T01:27:13.130Z,28.70
2024-02-28T01:29:41.213Z,28.48
2024-02-28T01:32:09.513Z,28.30
2024-02-28T01:34:37.685Z,28.98
2024-02-28T01:37:07.271Z,28.98
2024-02-28T01:39:35.412Z,28.05
2024-02-28T01:42:03.661Z,27.90
2024-02-28T01:44:31.997Z,26.92
2024-02-28T01:47:01.078Z,27.52
2024-02-28T01:49:29.379Z,27.05
2024-02-28T01:51:58.726Z,27.00
2024-02-28T01:54:33.836Z,27.08
2024-02-28T01:57:03.341Z,26.77
2024-02-28T01:59:33.853Z,27.42
2024-02-28T02:02:02.199Z,28.40
2024-02-28T02:04:30.893Z,27.95
2024-02-28T02:07:01.087Z,27.52
2024-02-28T02:09:30.999Z,28.00
2024-02-28T02:11:59.127Z,28.80
2024-02-28T02:14:27.238Z,28.42
2024-02-28T02:16:55.358Z,28.55
2024-02-28T02:19:23.680Z,26.85
2024-02-28T02:21:56.024Z,26.50
2024-02-28T02:24:25.758Z,28.48
2024-02-28T02:26:57.961Z,29.08
2024-02-28T02:29:26.162Z,28.55
2024-02-28T02:31:54.343Z,28.08
2024-02-28T02:34:22.517Z,27.08
2024-02-28T02:36:50.892Z,29.90
2024-02-28T02:39:19.218Z,28.73
2024-02-28T02:41:48.894Z,28.50
2024-02-28T02:44:17.035Z,27.77
2024-02-28T02:46:45.255Z,28.67
2024-02-28T02:49:13.384Z,27.98
2024-02-28T02:51:43.598Z,28.55
2024-02-28T02:54:11.972Z,28.45
2024-02-28T02:56:43.116Z,27.15
2024-02-28T02:59:13.226Z,28.10
2024-02-28T03:01:41.366Z,28.70
2024-02-28T03:04:09.735Z,30.17
2024-02-28T03:06:38.257Z,28.73
2024-02-28T03:09:07.872Z,28.45
2024-02-28T03:11:36.517Z,28.70
2024-02-28T03:14:04.995Z,28.00
2024-02-28T03:16:38.933Z,28.02
2024-02-28T03:19:07.413Z,29.70
2024-02-28T03:21:35.591Z,29.85
2024-02-28T03:24:03.978Z,28.48
2024-02-28T03:26:32.084Z,27.20
2024-02-28T03:29:00.451Z,28.45
2024-02-28T03:31:28.642Z,27.73
2024-02-28T03:33:58.356Z,27.02
2024-02-28T03:36:26.851Z,28.38
2024-02-28T03:38:55.007Z,27.63
2024-02-28T03:41:23.149Z,27.13
2024-02-28T03:43:51.250Z,26.45
2024-02-28T03:46:19.956Z,27.45
2024-02-28T03:48:48.110Z,27.77
2024-02-28T03:51:17.623Z,26.52
2024-02-28T03:53:45.779Z,26.63
2024-02-28T03:56:13.957Z,26.40
2024-02-28T03:58:42.712Z,27.30
2024-02-28T04:01:10.914Z,27.23
2024-02-28T04:03:39.172Z,27.35
2024-02-28T04:06:07.415Z,26.48
2024-02-28T04:08:37.048Z,28.00
2024-02-28T04:11:05.709Z,26.92
2024-02-28T04:13:34.036Z,27.10
2024-02-28T04:16:04.355Z,27.40
2024-02-28T04:18:32.563Z,27.10
2024-02-28T04:21:00.710Z,26.35
2024-02-28T04:23:31.387Z,27.05
2024-02-28T04:26:01.119Z,28.60
2024-02-28T04:28:29.411Z,27.92
2024-02-28T04:30:58.211Z,26.73
2024-02-28T04:33:26.581Z,27.95
2024-02-28T04:35:54.737Z,28.02
2024-02-28T04:38:22.892Z,27.42
2024-02-28T04:40:51.063Z,26.85
2024-02-28T04:43:20.741Z,27.50
2024-02-28T04:45:49.090Z,27.73
2024-02-28T04:48:17.348Z,27.33
2024-02-28T04:50:45.580Z,28.55
2024-02-28T04:53:12.628Z,26.45
2024-02-28T04:55:40.798Z,26.10
2024-02-28T04:58:08.933Z,26.13
2024-02-28T05:00:38.503Z,26.15
2024-02-28T05:03:07.068Z,27.42
2024-02-28T05:05:35.175Z,26.10
2024-02-28T05:08:03.312Z,26.60
2024-02-28T05:10:31.585Z,27.05
2024-02-28T05:13:00.514Z,24.95
2024-02-28T05:15:29.675Z,26.77
2024-02-28T05:17:59.136Z,27.33
2024-02-28T05:20:27.150Z,27.35
2024-02-28T05:22:55.260Z,25.77
2024-02-28T05:25:23.654Z,24.80
2024-02-28T05:27:52.047Z,25.45
2024-02-28T05:30:20.816Z,27.05
2024-02-28T05:32:49.021Z,25.52
2024-02-28T05:35:18.712Z,26.55
2024-02-28T05:37:47.788Z,27.15
2024-02-28T05:40:15.862Z,26.42
2024-02-28T05:42:44.235Z,26.75
2024-02-28T05:45:13.790Z,27.05
2024-02-28T05:47:42.043Z,27.02
2024-02-28T05:50:11.569Z,27.75
2024-02-28T05:52:43.509Z,28.58
2024-02-28T05:55:11.944Z,28.52
2024-02-28T05:57:40.290Z,28.05
2024-02-28T06:00:10.966Z,26.58
2024-02-28T06:02:39.336Z,27.02
2024-02-28T06:05:08.476Z,28.08
2024-02-28T06:07:36.608Z,29.23
2024-02-28T06:10:06.884Z,28.80
2024-02-28T06:12:35.047Z,28.13
2024-02-28T06:15:03.752Z,28.02
2024-02-28T06:17:31.892Z,28.15
2024-02-28T06:20:00.101Z,28.13
2024-02-28T06:22:28.485Z,28.00
2024-02-28T06:24:56.509Z,27.52
2024-02-28T06:27:27.806Z,28.20
2024-02-28T06:29:55.993Z,27.45
2024-02-28T06:32:27.258Z,28.77
2024-02-28T06:34:55.404Z,28.60
2024-02-28T06:37:23.649Z,28.38
2024-02-28T06:39:51.845Z,28.63
2024-02-28T06:42:20.004Z,27.77
2024-02-28T06:44:49.812Z,29.85
2024-02-28T06:47:17.844Z,29.95
2024-02-28T06:49:46.024Z,31.45
2024-02-28T06:52:14.450Z,33.70
2024-02-28T06:54:42.502Z,30.50
2024-02-28T06:57:12.573Z,28.08
2024-02-28T06:59:40.662Z,26.83
2024-02-28T07:02:10.213Z,28.23
2024-02-28T07:04:38.778Z,28.15
2024-02-28T07:07:09.906Z,27.27
2024-02-28T07:09:41.665Z,27.15
2024-02-28T07:12:10.077Z,28.13
2024-02-28T07:14:38.835Z,25.90
2024-02-28T07:17:08.138Z,27.10
2024-02-28T07:19:38.193Z,25.95
2024-02-28T07:22:07.760Z,27.40
2024-02-28T07:24:35.956Z,27.40
2024-02-28T07:27:04.260Z,26.58
2024-02-28T07:29:34.363Z,26.83
2024-02-28T07:32:03.576Z,26.70
2024-02-28T07:34:31.951Z,27.35
2024-02-28T07:37:02.083Z,26.83
2024-02-28T07:39:30.870Z,25.65
2024-02-28T07:41:59.462Z,26.00
2024-02-28T07:44:31.831Z,27.02
2024-02-28T07:47:00.525Z,25.67
2024-02-28T07:49:29.150Z,25.15
2024-02-28T07:51:57.848Z,25.55
2024-02-28T07:54:28.352Z,25.63
2024-02-28T07:56:56.504Z,24.60
2024-02-28T07:59:24.614Z,24.30
2024-02-28T08:01:55.595Z,25.17
2024-02-28T08:04:23.844Z,22.92
2024-02-28T08:06:52.004Z,24.00
2024-02-28T08:09:20.830Z,23.05
2024-02-28T08:11:50.372Z,23.45
2024-02-28T08:14:18.707Z,23.88
2024-02-28T08:16:46.942Z,24.38
2024-02-28T08:19:15.071Z,23.15
2024-02-28T08:21:45.633Z,23.30
2024-02-28T08:24:15.073Z,24.70
2024-02-28T08:26:43.352Z,23.80
2024-02-28T08:29:12.880Z,24.35
2024-02-28T08:31:47.894Z,24.27
2024-02-28T08:34:16.109Z,24.67
2024-02-28T08:36:44.340Z,24.58
2024-02-28T08:39:12.520Z,24.02
2024-02-28T08:41:40.836Z,23.15
2024-02-28T08:44:09.003Z,24.00
2024-02-28T08:46:38.511Z,23.70
2024-02-28T08:49:06.741Z,23.17
2024-02-28T08:51:37.729Z,23.35
2024-02-28T08:54:05.985Z,26.50
2024-02-28T08:56:34.339Z,25.15
2024-02-28T08:59:03.866Z,24.42
2024-02-28T09:01:32.171Z,34.03
2024-02-28T09:04:01.927Z,24.30
2024-02-28T09:06:33.010Z,24.15
2024-02-28T09:09:01.454Z,23.33
2024-02-28T09:11:29.650Z,24.17
2024-02-28T09:13:58.242Z,22.25
2024-02-28T09:16:26.419Z,23.90
2024-02-28T09:18:54.558Z,23.38
2024-02-28T09:21:27.169Z,24.50
2024-02-28T09:23:55.343Z,24.48
2024-02-28T09:26:23.627Z,24.48
2024-02-28T09:28:51.705Z,23.13
2024-02-28T09:31:20.714Z,23.85
2024-02-28T09:33:50.517Z,25.33
2024-02-28T09:36:18.699Z,25.40
2024-02-28T09:38:48.226Z,25.98
2024-02-28T09:41:18.031Z,23.50
2024-02-28T09:43:48.721Z,23.38
2024-02-28T09:46:17.324Z,23.50
2024-02-28T09:48:49.630Z,24.05
2024-02-28T09:51:20.758Z,22.50
2024-02-28T09:53:50.502Z,23.58
2024-02-28T09:56:19.711Z,25.58
2024-02-28T09:58:48.680Z,24.60
2024-02-28T10:01:18.693Z,22.88
2024-02-28T10:03:49.981Z,23.95
2024-02-28T10:06:18.227Z,23.60
2024-02-28T10:08:48.500Z,24.05
2024-02-28T10:11:25.384Z,23.48
2024-02-28T10:13:56.518Z,23.08
2024-02-28T10:16:25.962Z,22.48
2024-02-28T10:18:54.811Z,22.42
2024-02-28T10:21:23.806Z,22.75
2024-02-28T10:23:52.304Z,22.98
2024-02-28T10:26:20.620Z,23.45
2024-02-28T10:28:50.112Z,22.60
2024-02-28T10:31:18.357Z,24.40
2024-02-28T10:33:47.063Z,24.70
2024-02-28T10:36:19.516Z,23.30
2024-02-28T10:38:47.826Z,22.08
2024-02-28T10:41:19.053Z,21.48
2024-02-28T10:43:47.452Z,20.88
2024-02-28T10:46:34.905Z,21.50
2024-02-28T10:49:05.601Z,21.03
2024-02-28T10:51:37.638Z,20.13
2024-02-28T10:54:12.651Z,20.90
2024-02-28T10:56:42.139Z,20.70
2024-02-28T10:59:12.430Z,20.60
2024-02-28T11:01:44.957Z,21.10
2024-02-28T11:04:15.657Z,20.80
2024-02-28T11:06:53.019Z,21.42
2024-02-28T11:09:24.739Z,22.27
2024-02-28T11:11:55.181Z,21.65
2024-02-28T11:14:26.020Z,21.02
2024-02-28T11:17:04.471Z,21.15
2024-02-28T11:19:33.964Z,21.38
2024-02-28T11:22:05.337Z,22.20
2024-02-28T11:24:38.285Z,22.08
2024-02-28T11:27:14.542Z,21.25
2024-02-28T11:29:42.808Z,21.30
2024-02-28T11:32:13.643Z,23.67
2024-02-28T11:34:46.340Z,21.98
2024-02-28T11:37:14.566Z,22.50
2024-02-28T11:39:42.747Z,22.10
2024-02-28T11:42:12.403Z,20.88
2024-02-28T11:44:41.273Z,21.85
2024-02-28T11:47:12.569Z,21.30
2024-02-28T11:49:40.737Z,20.20
2024-02-28T11:52:10.682Z,20.17
2024-02-28T11:54:39.061Z,22.17
2024-02-28T11:57:08.544Z,21.02
2024-02-28T11:59:36.707Z,22.08
2024-02-28T12:02:15.733Z,21.60
2024-02-28T12:04:44.695Z,21.70
2024-02-28T12:07:13.464Z,22.48
2024-02-28T12:09:42.791Z,21.90
2024-02-28T12:12:11.505Z,20.52
2024-02-28T12:14:40.289Z,21.83
2024-02-28T12:17:10.175Z,22.05
2024-02-28T12:19:41.011Z,21.67
2024-02-28T12:22:09.596Z,23.02
2024-02-28T12:24:38.573Z,22.48
2024-02-28T12:27:07.222Z,21.50
2024-02-28T12:29:35.383Z,19.27
2024-02-28T12:32:04.560Z,19.92
2024-02-28T12:34:32.805Z,19.95
2024-02-28T12:37:02.348Z,21.67
2024-02-28T12:39:30.534Z,20.35
2024-02-28T12:42:00.825Z,19.85
2024-02-28T12:44:28.999Z,19.95
2024-02-28T12:47:00.522Z,19.75
2024-02-28T12:49:28.742Z,18.63
2024-02-28T12:52:01.186Z,19.90
2024-02-28T12:54:28.388Z,19.50
2024-02-28T12:56:56.543Z,20.35
2024-02-28T12:59:24.673Z,19.85
2024-02-28T13:01:54.547Z,20.05
2024-02-28T13:04:22.883Z,21.63
2024-02-28T13:06:51.419Z,19.17
2024-02-28T13:09:23.728Z,19.65
2024-02-28T13:11:55.175Z,19.25
2024-02-28T13:14:23.343Z,19.60
2024-02-28T13:16:55.010Z,19.33
2024-02-28T13:19:23.218Z,20.08
2024-02-28T13:21:51.411Z,20.52
2024-02-28T13:24:21.327Z,19.65
2024-02-28T13:26:52.339Z,21.20
2024-02-28T13:29:20.472Z,20.75
2024-02-28T13:31:49.897Z,20.50
2024-02-28T13:34:18.124Z,22.42
2024-02-28T13:36:46.365Z,21.70
2024-02-28T13:39:14.622Z,21.20
2024-02-28T13:41:44.879Z,20.75
2024-02-28T13:44:13.072Z,22.50
2024-02-28T13:46:44.600Z,21.27
2024-02-28T13:49:13.424Z,21.17
2024-02-28T13:51:42.852Z,20.00
2024-02-28T13:54:11.209Z,20.02
2024-02-28T13:56:39.304Z,20.02
2024-02-28T13:59:11.589Z,22.20
2024-02-28T14:01:39.991Z,20.60
2024-02-28T14:04:08.531Z,20.48
2024-02-28T14:06:36.827Z,19.73
2024-02-28T14:09:05.984Z,19.50
2024-02-28T14:11:34.167Z,21.70
2024-02-28T14:14:02.466Z,20.92
2024-02-28T14:16:33.378Z,20.58
2024-02-28T14:19:02.354Z,20.60
2024-02-28T14:21:30.554Z,21.02
2024-02-28T14:23:59.973Z,19.90
2024-02-28T14:26:28.281Z,20.80
2024-02-28T14:28:56.376Z,21.65
2024-02-28T14:31:25.174Z,21.00
2024-02-28T14:33:55.840Z,21.55
2024-02-28T14:36:25.201Z,20.67
2024-02-28T14:38:53.707Z,20.73
2024-02-28T14:41:22.600Z,20.70
2024-02-28T14:43:50.869Z,21.88
2024-02-28T14:46:22.682Z,20.25
2024-02-28T14:48:53.088Z,20.02
2024-02-28T14:51:22.914Z,21.10
2024-02-28T14:53:51.415Z,21.90
2024-02-28T14:56:20.883Z,20.15
2024-02-28T14:58:49.003Z,21.05
2024-02-28T15:01:17.264Z,21.23
2024-02-28T15:03:47.178Z,22.13
2024-02-28T15:06:18.155Z,20.85
2024-02-28T15:08:48.089Z,21.77
2024-02-28T15:11:20.290Z,21.98
2024-02-28T15:13:49.128Z,23.23
2024-02-28T15:16:18.193Z,22.80
2024-02-28T15:18:46.957Z,21.27
2024-02-28T15:21:15.095Z,21.30
2024-02-28T15:23:43.152Z,21.02
2024-02-28T15:26:12.657Z,21.42
2024-02-28T15:28:40.761Z,21.33
2024-02-28T15:31:09.014Z,22.55
2024-02-28T15:33:37.385Z,22.02
2024-02-28T15:36:06.196Z,22.58
2024-02-28T15:38:34.946Z,21.83
2024-02-28T15:41:03.163Z,21.13
2024-02-28T15:43:32.976Z,22.17
2024-02-28T15:46:01.152Z,22.83
2024-02-28T15:48:31.054Z,22.13
2024-02-28T15:51:00.527Z,22.17
2024-02-28T15:53:28.718Z,22.77
2024-02-28T15:55:56.865Z,24.25
2024-02-28T15:58:25.232Z,24.35
2024-02-28T16:00:54.866Z,25.08
2024-02-28T16:03:23.006Z,24.35
2024-02-28T16:05:51.398Z,22.10
2024-02-28T16:08:21.014Z,22.20
2024-02-28T16:10:49.304Z,22.50
2024-02-28T16:13:17.817Z,23.27
2024-02-28T16:15:46.073Z,26.25
2024-02-28T16:18:15.784Z,25.88
2024-02-28T16:20:46.975Z,26.05
2024-02-28T16:23:18.170Z,25.45
2024-02-28T16:25:47.809Z,26.08
2024-02-28T16:28:15.952Z,23.65
2024-02-28T16:30:47.822Z,26.83
2024-02-28T16:33:18.409Z,23.27
2024-02-28T16:35:46.684Z,24.88
2024-02-28T16:38:15.902Z,25.60
2024-02-28T16:40:46.221Z,25.52
2024-02-28T16:43:14.360Z,22.60
2024-02-28T16:45:42.544Z,25.08
2024-02-28T16:48:11.452Z,26.15
2024-02-28T16:50:41.069Z,26.75
2024-02-28T16:53:09.501Z,24.33
2024-02-28T16:55:37.792Z,25.88
2024-02-28T16:58:06.525Z,24.83
2024-02-28T17:00:35.327Z,23.75
2024-02-28T17:03:03.800Z,25.15
2024-02-28T17:05:34.380Z,25.83
2024-02-28T17:08:04.559Z,26.58
2024-02-28T17:10:34.334Z,26.88
2024-02-28T17:13:04.999Z,25.15
2024-02-28T17:15:33.173Z,24.63
2024-02-28T17:18:03.978Z,26.23
2024-02-28T17:20:32.239Z,24.88
2024-02-28T17:23:00.501Z,25.88
2024-02-28T17:25:30.006Z,24.30
2024-02-28T17:27:58.202Z,25.20
2024-02-28T17:30:26.471Z,25.02
2024-02-28T17:32:54.718Z,24.48
2024-02-28T17:35:23.054Z,25.33
2024-02-28T17:37:51.291Z,24.83
2024-02-28T17:40:19.581Z,23.20
2024-02-28T17:42:49.087Z,25.10
2024-02-28T17:45:18.253Z,24.40
2024-02-28T17:47:46.762Z,25.83
2024-02-28T17:50:16.495Z,26.40
2024-02-28T17:52:46.885Z,27.17
2024-02-28T17:55:16.708Z,26.42
2024-02-28T17:57:47.165Z,36.22
2024-02-28T18:00:22.901Z,25.13
2024-02-28T18:02:51.694Z,25.02
2024-02-28T18:05:20.147Z,26.67
2024-02-28T18:07:48.240Z,27.63
2024-02-28T18:10:16.829Z,25.98
2024-02-28T18:12:45.069Z,29.02
2024-02-28T18:15:14.148Z,28.77
2024-02-28T18:17:43.614Z,30.15
2024-02-28T18:20:12.485Z,34.67
2024-02-28T18:22:40.757Z,30.45
2024-02-28T18:25:09.422Z,30.35
2024-02-28T18:27:37.996Z,31.58
2024-02-28T18:30:08.989Z,26.35
2024-02-28T18:32:37.104Z,27.50
2024-02-28T18:35:07.228Z,25.55
2024-02-28T18:37:35.368Z,28.33
2024-02-28T18:40:05.886Z,27.48
2024-02-28T18:42:34.255Z,28.90
2024-02-28T18:47:33.944Z,26.35
2024-02-28T18:50:02.099Z,28.13
2024-02-28T18:52:31.622Z,26.67
2024-02-28T18:54:59.817Z,26.77
2024-02-28T18:57:27.959Z,27.67
2024-02-28T19:00:00.382Z,27.67
2024-02-28T19:02:28.553Z,27.90
2024-02-28T19:04:56.722Z,28.70
2024-02-28T19:07:25.080Z,29.65
2024-02-28T19:09:54.714Z,28.02
2024-02-28T19:12:22.820Z,27.55
2024-02-28T19:14:50.920Z,27.75
2024-02-28T19:17:18.949Z,26.40
2024-02-28T19:19:47.356Z,27.25
2024-02-28T19:22:15.589Z,27.85
2024-02-28T19:24:43.781Z,27.48
2024-02-28T19:27:13.237Z,28.13
2024-02-28T19:29:41.385Z,26.98
2024-02-28T19:32:09.543Z,27.52
2024-02-28T19:34:37.905Z,28.10
2024-02-28T19:37:06.271Z,26.45
2024-02-28T19:39:34.618Z,27.75
2024-02-28T19:42:02.799Z,26.30
2024-02-28T19:44:32.456Z,28.45
2024-02-28T19:47:00.512Z,28.73
2024-02-28T19:49:28.599Z,26.92
2024-02-28T19:51:56.832Z,27.90
2024-02-28T19:54:24.986Z,26.92
2024-02-28T19:56:53.282Z,25.98
2024-02-28T19:59:21.347Z,26.45
2024-02-28T20:01:51.003Z,26.20
2024-02-28T20:04:19.205Z,27.75
2024-02-28T20:06:47.454Z,27.70
2024-02-28T20:09:15.784Z,27.25
2024-02-28T20:11:44.020Z,25.23
2024-02-28T20:14:12.208Z,25.25
2024-02-28T20:16:43.383Z,25.17
2024-02-28T20:19:13.071Z,26.42
2024-02-28T20:21:41.312Z,25.55
2024-02-28T20:24:09.676Z,27.02
2024-02-28T20:26:37.922Z,29.00
2024-02-28T20:29:07.755Z,28.10
2024-02-28T20:31:36.005Z,27.52
2024-02-28T20:34:04.312Z,26.88
2024-02-28T20:36:35.334Z,26.98
2024-02-28T20:39:03.612Z,27.55
2024-02-28T20:41:34.698Z,28.23
2024-02-28T20:44:03.274Z,28.90
2024-02-28T20:46:31.962Z,27.88
2024-02-28T20:49:00.486Z,29.40
2024-02-28T20:51:28.754Z,30.02
2024-02-28T20:53:58.748Z,28.92
2024-02-28T20:56:27.723Z,29.95
2024-02-28T20:58:57.136Z,30.00
2024-02-28T21:01:28.264Z,30.92
2024-02-28T21:03:56.917Z,31.83
2024-02-28T21:06:25.164Z,32.20
2024-02-28T21:08:56.746Z,35.40
2024-02-28T21:11:26.367Z,36.15
2024-02-28T21:13:56.470Z,33.83
2024-02-28T21:16:25.863Z,32.75
2024-02-28T21:18:56.080Z,34.63
2024-02-28T21:21:27.215Z,31.80
2024-02-28T21:23:55.422Z,32.92
2024-02-28T21:26:25.357Z,31.65
2024-02-28T21:28:53.601Z,31.10
2024-02-28T21:31:21.997Z,31.85
2024-02-28T21:33:50.207Z,30.88
2024-02-28T21:36:18.547Z,31.85
2024-02-28T21:38:46.908Z,31.52
2024-02-28T21:41:16.330Z,31.92
2024-02-28T21:43:46.037Z,32.90
2024-02-28T21:46:14.160Z,32.35
2024-02-28T21:48:43.404Z,34.40
2024-02-28T21:51:12.209Z,34.20
2024-02-28T21:53:40.318Z,32.85
2024-02-28T21:56:10.355Z,41.42
2024-02-28T21:58:38.373Z,42.90
2024-02-28T22:01:10.326Z,35.08
2024-02-28T22:03:38.597Z,32.80
2024-02-28T22:06:09.878Z,35.80
2024-02-28T22:08:38.857Z,36.17
2024-02-28T22:11:09.726Z,33.35
2024-02-28T22:13:37.848Z,33.53
2024-02-28T22:16:07.730Z,32.67
2024-02-28T22:18:36.046Z,32.00
2024-02-28T22:21:04.533Z,33.88
2024-02-28T22:23:34.515Z,39.95
2024-02-28T22:26:02.857Z,36.78
2024-02-28T22:28:30.965Z,31.05
2024-02-28T22:31:01.748Z,30.95
2024-02-28T22:33:31.288Z,29.67
2024-02-28T22:35:59.407Z,29.17
2024-02-28T22:38:27.396Z,30.42
2024-02-28T22:40:55.858Z,29.50
2024-02-28T22:43:23.858Z,28.45
2024-02-28T22:45:51.954Z,28.40
2024-02-28T22:48:20.088Z,30.80
2024-02-28T22:50:49.561Z,31.13
2024-02-28T22:53:17.650Z,29.80
2024-02-28T22:55:45.972Z,26.83
2024-02-28T22:58:14.190Z,29.02
2024-02-28T23:00:44.094Z,28.20
2024-02-28T23:03:14.867Z,28.27
2024-02-28T23:05:43.153Z,27.88
2024-02-28T23:08:12.737Z,28.27
2024-02-28T23:10:40.882Z,27.05
2024-02-28T23:13:09.060Z,29.20
2024-02-28T23:15:37.200Z,28.00
2024-02-28T23:18:11.826Z,29.40
2024-02-28T23:20:40.700Z,27.92
2024-02-28T23:23:08.835Z,31.23
2024-02-28T23:25:38.358Z,28.90
2024-02-28T23:28:09.665Z,29.88
2024-02-28T23:30:38.015Z,30.92
2024-02-28T23:33:08.161Z,30.38
2024-02-28T23:35:36.533Z,30.00
2024-02-28T23:38:06.364Z,30.63
2024-02-28T23:40:33.697Z,32.08
2024-02-28T23:43:03.357Z,31.17
2024-02-28T23:45:31.538Z,29.77
2024-02-28T23:47:59.704Z,32.90
2024-02-28T23:50:28.834Z,32.70
2024-02-28T23:52:57.004Z,34.42
2024-02-28T23:55:25.195Z,34.53
2024-02-28T23:57:53.273Z,35.67
